sensor_id;sensor_type;location;lat;lon;timestamp;P1;durP1;ratioP1;P2;durP2;ratioP2
40675;SDS011;26359;48.750;9.314;2023-09-18T00:01:47;34.88;;;32.83;;
40675;SDS011;26359;48.750;9.314;2023-09-18T00:04:13;29.02;;;27.42;;
40675;SDS011;26359;48.750;9.314;2023-09-18T00:06:38;33.25;;;31.25;;
40675;SDS011;26359;48.750;9.314;2023-09-18T00:09:04;28.45;;;26.35;;
40675;SDS011;26359;48.750;9.314;2023-09-18T00:11:32;42.20;;;39.70;;
40675;SDS011;26359;48.750;9.314;2023-09-18T00:13:57;43.42;;;41.10;;
40675;SDS011;26359;48.750;9.314;2023-09-18T00:16:22;41.05;;;38.63;;
40675;SDS011;26359;48.750;9.314;2023-09-18T00:18:49;24.27;;;22.67;;
40675;SDS011;26359;48.750;9.314;2023-09-18T00:21:15;15.30;;;13.98;;
40675;SDS011;26359;48.750;9.314;2023-09-18T00:23:41;29.75;;;28.05;;
40675;SDS011;26359;48.750;9.314;2023-09-18T00:26:07;37.30;;;35.17;;
40675;SDS011;26359;48.750;9.314;2023-09-18T00:28:32;35.95;;;33.92;;
40675;SDS011;26359;48.750;9.314;2023-09-18T00:30:58;40.78;;;38.53;;
40675;SDS011;26359;48.750;9.314;2023-09-18T00:33:23;52.60;;;49.72;;
40675;SDS011;26359;48.750;9.314;2023-09-18T00:35:49;33.60;;;31.60;;
40675;SDS011;26359;48.750;9.314;2023-09-18T00:38:16;40.78;;;38.35;;
40675;SDS011;26359;48.750;9.314;2023-09-18T00:40:42;34.40;;;32.35;;
40675;SDS011;26359;48.750;9.314;2023-09-18T00:43:08;16.13;;;15.13;;
40675;SDS011;26359;48.750;9.314;2023-09-18T00:45:35;12.38;;;11.60;;
40675;SDS011;26359;48.750;9.314;2023-09-18T00:48:05;15.18;;;13.88;;
40675;SDS011;26359;48.750;9.314;2023-09-18T00:50:31;14.43;;;13.52;;
40675;SDS011;26359;48.750;9.314;2023-09-18T00:52:57;19.02;;;17.85;;
40675;SDS011;26359;48.750;9.314;2023-09-18T00:55:24;38.25;;;35.92;;
40675;SDS011;26359;48.750;9.314;2023-09-18T00:57:51;68.32;;;64.60;;
40675;SDS011;26359;48.750;9.314;2023-09-18T01:00:17;37.65;;;35.58;;
40675;SDS011;26359;48.750;9.314;2023-09-18T01:02:43;21.90;;;20.55;;
40675;SDS011;26359;48.750;9.314;2023-09-18T01:05:10;25.15;;;23.63;;
40675;SDS011;26359;48.750;9.314;2023-09-18T01:07:35;24.30;;;22.75;;
40675;SDS011;26359;48.750;9.314;2023-09-18T01:10:01;68.35;;;64.80;;
40675;SDS011;26359;48.750;9.314;2023-09-18T01:12:33;51.63;;;48.90;;
40675;SDS011;26359;48.750;9.314;2023-09-18T01:15:11;53.80;;;50.83;;
40675;SDS011;26359;48.750;9.314;2023-09-18T01:17:41;48.53;;;45.92;;
40675;SDS011;26359;48.750;9.314;2023-09-18T01:20:11;50.80;;;47.97;;
40675;SDS011;26359;48.750;9.314;2023-09-18T01:22:37;30.33;;;28.58;;
40675;SDS011;26359;48.750;9.314;2023-09-18T01:25:03;14.85;;;13.75;;
40675;SDS011;26359;48.750;9.314;2023-09-18T01:27:29;38.15;;;35.88;;
40675;SDS011;26359;48.750;9.314;2023-09-18T01:29:55;42.10;;;39.63;;
40675;SDS011;26359;48.750;9.314;2023-09-18T01:32:21;38.67;;;36.55;;
40675;SDS011;26359;48.750;9.314;2023-09-18T01:34:51;32.17;;;30.23;;
40675;SDS011;26359;48.750;9.314;2023-09-18T01:37:22;31.17;;;29.38;;
40675;SDS011;26359;48.750;9.314;2023-09-18T01:39:49;32.10;;;30.27;;
40675;SDS011;26359;48.750;9.314;2023-09-18T01:42:16;29.83;;;28.05;;
40675;SDS011;26359;48.750;9.314;2023-09-18T01:44:42;17.92;;;16.83;;
40675;SDS011;26359;48.750;9.314;2023-09-18T01:47:12;15.32;;;14.32;;
40675;SDS011;26359;48.750;9.314;2023-09-18T01:49:41;19.55;;;18.25;;
40675;SDS011;26359;48.750;9.314;2023-09-18T01:52:07;22.00;;;20.60;;
40675;SDS011;26359;48.750;9.314;2023-09-18T01:54:34;24.50;;;23.00;;
40675;SDS011;26359;48.750;9.314;2023-09-18T01:57:00;16.60;;;15.60;;
40675;SDS011;26359;48.750;9.314;2023-09-18T01:59:26;18.35;;;17.17;;
40675;SDS011;26359;48.750;9.314;2023-09-18T02:01:52;21.80;;;20.20;;
40675;SDS011;26359;48.750;9.314;2023-09-18T02:04:21;20.40;;;19.25;;
40675;SDS011;26359;48.750;9.314;2023-09-18T02:06:48;26.35;;;24.73;;
40675;SDS011;26359;48.750;9.314;2023-09-18T02:09:17;23.67;;;22.30;;
40675;SDS011;26359;48.750;9.314;2023-09-18T02:11:43;47.42;;;44.22;;
40675;SDS011;26359;48.750;9.314;2023-09-18T02:14:12;48.95;;;45.88;;
40675;SDS011;26359;48.750;9.314;2023-09-18T02:16:41;26.23;;;24.52;;
40675;SDS011;26359;48.750;9.314;2023-09-18T02:19:10;21.33;;;19.73;;
40675;SDS011;26359;48.750;9.314;2023-09-18T02:21:38;14.02;;;12.77;;
40675;SDS011;26359;48.750;9.314;2023-09-18T02:24:03;12.98;;;11.75;;
40675;SDS011;26359;48.750;9.314;2023-09-18T02:26:29;11.50;;;10.65;;
40675;SDS011;26359;48.750;9.314;2023-09-18T02:28:58;12.95;;;11.65;;
40675;SDS011;26359;48.750;9.314;2023-09-18T02:31:25;16.58;;;15.48;;
40675;SDS011;26359;48.750;9.314;2023-09-18T02:33:51;21.65;;;20.25;;
40675;SDS011;26359;48.750;9.314;2023-09-18T02:36:17;34.50;;;32.40;;
40675;SDS011;26359;48.750;9.314;2023-09-18T02:38:42;29.35;;;27.50;;
40675;SDS011;26359;48.750;9.314;2023-09-18T02:41:08;14.25;;;13.05;;
40675;SDS011;26359;48.750;9.314;2023-09-18T02:43:34;13.93;;;12.60;;
40675;SDS011;26359;48.750;9.314;2023-09-18T02:46:00;18.83;;;17.45;;
40675;SDS011;26359;48.750;9.314;2023-09-18T02:48:25;14.20;;;12.70;;
40675;SDS011;26359;48.750;9.314;2023-09-18T02:50:51;11.20;;;9.80;;
40675;SDS011;26359;48.750;9.314;2023-09-18T02:53:18;10.30;;;9.30;;
40675;SDS011;26359;48.750;9.314;2023-09-18T02:55:45;12.45;;;8.65;;
40675;SDS011;26359;48.750;9.314;2023-09-18T02:58:15;13.90;;;12.60;;
40675;SDS011;26359;48.750;9.314;2023-09-18T03:00:44;13.02;;;11.93;;
40675;SDS011;26359;48.750;9.314;2023-09-18T03:03:11;17.15;;;15.88;;
40675;SDS011;26359;48.750;9.314;2023-09-18T03:05:38;19.05;;;17.75;;
40675;SDS011;26359;48.750;9.314;2023-09-18T03:08:04;19.65;;;18.30;;
40675;SDS011;26359;48.750;9.314;2023-09-18T03:10:36;17.25;;;16.00;;
40675;SDS011;26359;48.750;9.314;2023-09-18T03:13:04;15.80;;;14.45;;
40675;SDS011;26359;48.750;9.314;2023-09-18T03:15:31;28.33;;;26.52;;
40675;SDS011;26359;48.750;9.314;2023-09-18T03:17:57;14.18;;;12.90;;
40675;SDS011;26359;48.750;9.314;2023-09-18T03:20:23;13.40;;;12.30;;
40675;SDS011;26359;48.750;9.314;2023-09-18T03:22:50;14.63;;;13.25;;
40675;SDS011;26359;48.750;9.314;2023-09-18T03:25:16;14.07;;;12.95;;
40675;SDS011;26359;48.750;9.314;2023-09-18T03:27:42;10.93;;;9.68;;
40675;SDS011;26359;48.750;9.314;2023-09-18T03:30:08;10.15;;;9.35;;
40675;SDS011;26359;48.750;9.314;2023-09-18T03:32:34;10.93;;;9.95;;
40675;SDS011;26359;48.750;9.314;2023-09-18T03:35:01;11.20;;;10.07;;
40675;SDS011;26359;48.750;9.314;2023-09-18T03:37:26;19.67;;;18.23;;
40675;SDS011;26359;48.750;9.314;2023-09-18T03:39:52;16.35;;;14.98;;
40675;SDS011;26359;48.750;9.314;2023-09-18T03:42:17;15.23;;;13.88;;
40675;SDS011;26359;48.750;9.314;2023-09-18T03:44:43;15.07;;;13.93;;
40675;SDS011;26359;48.750;9.314;2023-09-18T03:47:08;9.63;;;8.63;;
40675;SDS011;26359;48.750;9.314;2023-09-18T03:49:34;12.93;;;9.15;;
40675;SDS011;26359;48.750;9.314;2023-09-18T03:51:59;11.65;;;10.43;;
40675;SDS011;26359;48.750;9.314;2023-09-18T03:54:25;10.75;;;9.68;;
40675;SDS011;26359;48.750;9.314;2023-09-18T03:56:50;16.70;;;15.27;;
40675;SDS011;26359;48.750;9.314;2023-09-18T03:59:16;13.90;;;12.45;;
40675;SDS011;26359;48.750;9.314;2023-09-18T04:01:41;19.27;;;17.35;;
40675;SDS011;26359;48.750;9.314;2023-09-18T04:04:07;17.08;;;15.55;;
40675;SDS011;26359;48.750;9.314;2023-09-18T04:06:36;16.95;;;15.85;;
40675;SDS011;26359;48.750;9.314;2023-09-18T04:09:05;37.33;;;34.92;;
40675;SDS011;26359;48.750;9.314;2023-09-18T04:11:31;19.52;;;18.08;;
40675;SDS011;26359;48.750;9.314;2023-09-18T04:13:57;26.75;;;24.73;;
40675;SDS011;26359;48.750;9.314;2023-09-18T04:16:26;17.52;;;16.17;;
40675;SDS011;26359;48.750;9.314;2023-09-18T04:18:53;11.02;;;9.98;;
40675;SDS011;26359;48.750;9.314;2023-09-18T04:21:18;10.20;;;9.30;;
40675;SDS011;26359;48.750;9.314;2023-09-18T04:23:46;15.00;;;13.63;;
40675;SDS011;26359;48.750;9.314;2023-09-18T04:26:11;23.92;;;22.27;;
40675;SDS011;26359;48.750;9.314;2023-09-18T04:28:39;16.55;;;15.15;;
40675;SDS011;26359;48.750;9.314;2023-09-18T04:31:04;21.67;;;19.88;;
40675;SDS011;26359;48.750;9.314;2023-09-18T04:33:30;11.55;;;7.40;;
40675;SDS011;26359;48.750;9.314;2023-09-18T04:35:55;22.20;;;20.50;;
40675;SDS011;26359;48.750;9.314;2023-09-18T04:38:21;19.10;;;17.58;;
40675;SDS011;26359;48.750;9.314;2023-09-18T04:40:46;20.02;;;18.27;;
40675;SDS011;26359;48.750;9.314;2023-09-18T04:43:12;22.23;;;20.27;;
40675;SDS011;26359;48.750;9.314;2023-09-18T04:45:37;27.80;;;25.80;;
40675;SDS011;26359;48.750;9.314;2023-09-18T04:48:03;29.02;;;27.02;;
40675;SDS011;26359;48.750;9.314;2023-09-18T04:50:30;13.32;;;8.27;;
40675;SDS011;26359;48.750;9.314;2023-09-18T04:52:56;12.27;;;11.02;;
40675;SDS011;26359;48.750;9.314;2023-09-18T04:55:22;13.13;;;11.82;;
40675;SDS011;26359;48.750;9.314;2023-09-18T04:57:48;11.13;;;9.20;;
40675;SDS011;26359;48.750;9.314;2023-09-18T05:00:14;15.95;;;12.70;;
40675;SDS011;26359;48.750;9.314;2023-09-18T05:02:39;20.73;;;18.90;;
40675;SDS011;26359;48.750;9.314;2023-09-18T05:05:05;19.75;;;18.25;;
40675;SDS011;26359;48.750;9.314;2023-09-18T05:07:33;30.40;;;27.90;;
40675;SDS011;26359;48.750;9.314;2023-09-18T05:09:59;38.25;;;35.30;;
40675;SDS011;26359;48.750;9.314;2023-09-18T05:12:25;31.35;;;29.20;;
40675;SDS011;26359;48.750;9.314;2023-09-18T05:14:50;33.83;;;31.45;;
40675;SDS011;26359;48.750;9.314;2023-09-18T05:17:16;31.67;;;29.63;;
40675;SDS011;26359;48.750;9.314;2023-09-18T05:19:43;41.83;;;38.78;;
40675;SDS011;26359;48.750;9.314;2023-09-18T05:22:09;44.47;;;41.42;;
40675;SDS011;26359;48.750;9.314;2023-09-18T05:24:35;31.75;;;29.35;;
40675;SDS011;26359;48.750;9.314;2023-09-18T05:27:02;42.63;;;40.10;;
40675;SDS011;26359;48.750;9.314;2023-09-18T05:29:28;25.92;;;24.23;;
40675;SDS011;26359;48.750;9.314;2023-09-18T05:31:53;18.73;;;17.23;;
40675;SDS011;26359;48.750;9.314;2023-09-18T05:34:19;9.55;;;8.10;;
40675;SDS011;26359;48.750;9.314;2023-09-18T05:36:44;10.80;;;7.68;;
40675;SDS011;26359;48.750;9.314;2023-09-18T05:39:10;10.18;;;7.20;;
40675;SDS011;26359;48.750;9.314;2023-09-18T05:41:38;13.88;;;11.38;;
40675;SDS011;26359;48.750;9.314;2023-09-18T05:44:04;13.90;;;12.45;;
40675;SDS011;26359;48.750;9.314;2023-09-18T05:46:34;14.57;;;13.23;;
40675;SDS011;26359;48.750;9.314;2023-09-18T05:49:00;10.98;;;8.88;;
40675;SDS011;26359;48.750;9.314;2023-09-18T05:51:26;12.07;;;10.55;;
40675;SDS011;26359;48.750;9.314;2023-09-18T05:53:52;19.20;;;17.65;;
40675;SDS011;26359;48.750;9.314;2023-09-18T05:56:18;28.33;;;26.27;;
40675;SDS011;26359;48.750;9.314;2023-09-18T05:58:43;61.05;;;57.10;;
40675;SDS011;26359;48.750;9.314;2023-09-18T06:01:09;55.35;;;52.28;;
40675;SDS011;26359;48.750;9.314;2023-09-18T06:03:35;38.60;;;36.10;;
40675;SDS011;26359;48.750;9.314;2023-09-18T06:06:07;12.05;;;10.48;;
40675;SDS011;26359;48.750;9.314;2023-09-18T06:08:35;8.55;;;7.28;;
40675;SDS011;26359;48.750;9.314;2023-09-18T06:11:01;16.30;;;12.40;;
40675;SDS011;26359;48.750;9.314;2023-09-18T06:13:27;14.57;;;10.57;;
40675;SDS011;26359;48.750;9.314;2023-09-18T06:15:55;10.32;;;9.07;;
40675;SDS011;26359;48.750;9.314;2023-09-18T06:18:22;13.43;;;12.13;;
40675;SDS011;26359;48.750;9.314;2023-09-18T06:20:47;17.15;;;11.35;;
40675;SDS011;26359;48.750;9.314;2023-09-18T06:23:13;8.88;;;7.80;;
40675;SDS011;26359;48.750;9.314;2023-09-18T06:25:39;11.70;;;9.38;;
40675;SDS011;26359;48.750;9.314;2023-09-18T06:28:05;14.23;;;9.00;;
40675;SDS011;26359;48.750;9.314;2023-09-18T06:30:31;11.52;;;9.20;;
40675;SDS011;26359;48.750;9.314;2023-09-18T06:32:58;11.45;;;8.88;;
40675;SDS011;26359;48.750;9.314;2023-09-18T06:35:24;12.07;;;10.88;;
40675;SDS011;26359;48.750;9.314;2023-09-18T06:37:50;20.02;;;10.18;;
40675;SDS011;26359;48.750;9.314;2023-09-18T06:40:15;17.10;;;9.10;;
40675;SDS011;26359;48.750;9.314;2023-09-18T06:42:41;15.43;;;13.82;;
40675;SDS011;26359;48.750;9.314;2023-09-18T06:45:07;23.05;;;21.02;;
40675;SDS011;26359;48.750;9.314;2023-09-18T06:47:33;18.27;;;16.65;;
40675;SDS011;26359;48.750;9.314;2023-09-18T06:49:59;15.00;;;11.65;;
40675;SDS011;26359;48.750;9.314;2023-09-18T06:52:29;13.65;;;10.20;;
40675;SDS011;26359;48.750;9.314;2023-09-18T06:54:55;17.48;;;15.75;;
40675;SDS011;26359;48.750;9.314;2023-09-18T06:57:20;13.02;;;10.77;;
40675;SDS011;26359;48.750;9.314;2023-09-18T06:59:46;16.40;;;12.05;;
40675;SDS011;26359;48.750;9.314;2023-09-18T07:02:12;11.30;;;7.38;;
40675;SDS011;26359;48.750;9.314;2023-09-18T07:04:39;16.77;;;8.70;;
40675;SDS011;26359;48.750;9.314;2023-09-18T07:07:09;13.30;;;7.78;;
40675;SDS011;26359;48.750;9.314;2023-09-18T07:09:37;9.85;;;8.85;;
40675;SDS011;26359;48.750;9.314;2023-09-18T07:12:03;11.48;;;9.32;;
40675;SDS011;26359;48.750;9.314;2023-09-18T07:14:28;18.80;;;16.45;;
40675;SDS011;26359;48.750;9.314;2023-09-18T07:16:54;13.90;;;9.20;;
40675;SDS011;26359;48.750;9.314;2023-09-18T07:19:19;13.88;;;11.15;;
40675;SDS011;26359;48.750;9.314;2023-09-18T07:21:45;15.85;;;12.70;;
40675;SDS011;26359;48.750;9.314;2023-09-18T07:24:11;27.40;;;24.98;;
40675;SDS011;26359;48.750;9.314;2023-09-18T07:26:42;14.18;;;9.88;;
40675;SDS011;26359;48.750;9.314;2023-09-18T07:29:12;10.38;;;7.47;;
40675;SDS011;26359;48.750;9.314;2023-09-18T07:31:38;13.80;;;8.63;;
40675;SDS011;26359;48.750;9.314;2023-09-18T07:34:05;9.73;;;7.82;;
40675;SDS011;26359;48.750;9.314;2023-09-18T07:36:31;13.38;;;9.20;;
40675;SDS011;26359;48.750;9.314;2023-09-18T07:38:56;21.00;;;19.45;;
40675;SDS011;26359;48.750;9.314;2023-09-18T07:41:22;12.75;;;11.60;;
40675;SDS011;26359;48.750;9.314;2023-09-18T07:43:48;10.48;;;9.13;;
40675;SDS011;26359;48.750;9.314;2023-09-18T07:46:14;11.05;;;9.73;;
40675;SDS011;26359;48.750;9.314;2023-09-18T07:48:39;11.98;;;10.85;;
40675;SDS011;26359;48.750;9.314;2023-09-18T07:51:05;9.98;;;8.60;;
40675;SDS011;26359;48.750;9.314;2023-09-18T07:53:30;12.48;;;11.20;;
40675;SDS011;26359;48.750;9.314;2023-09-18T07:55:57;15.98;;;14.52;;
40675;SDS011;26359;48.750;9.314;2023-09-18T07:58:23;13.80;;;12.68;;
40675;SDS011;26359;48.750;9.314;2023-09-18T08:00:52;43.90;;;41.22;;
40675;SDS011;26359;48.750;9.314;2023-09-18T08:03:19;33.33;;;31.17;;
40675;SDS011;26359;48.750;9.314;2023-09-18T08:05:49;17.52;;;15.88;;
40675;SDS011;26359;48.750;9.314;2023-09-18T08:08:15;17.40;;;16.05;;
40675;SDS011;26359;48.750;9.314;2023-09-18T08:10:41;15.88;;;14.75;;
40675;SDS011;26359;48.750;9.314;2023-09-18T08:13:06;22.50;;;21.08;;
40675;SDS011;26359;48.750;9.314;2023-09-18T08:15:32;31.55;;;29.55;;
40675;SDS011;26359;48.750;9.314;2023-09-18T08:17:57;35.72;;;33.58;;
40675;SDS011;26359;48.750;9.314;2023-09-18T08:20:23;33.53;;;31.48;;
40675;SDS011;26359;48.750;9.314;2023-09-18T08:22:51;37.78;;;35.60;;
40675;SDS011;26359;48.750;9.314;2023-09-18T08:25:17;29.83;;;27.77;;
40675;SDS011;26359;48.750;9.314;2023-09-18T08:27:42;29.30;;;27.33;;
40675;SDS011;26359;48.750;9.314;2023-09-18T08:30:09;34.83;;;32.90;;
40675;SDS011;26359;48.750;9.314;2023-09-18T08:32:36;30.60;;;28.70;;
40675;SDS011;26359;48.750;9.314;2023-09-18T08:35:02;56.97;;;53.72;;
40675;SDS011;26359;48.750;9.314;2023-09-18T08:37:29;33.85;;;31.90;;
40675;SDS011;26359;48.750;9.314;2023-09-18T08:39:54;26.58;;;24.83;;
40675;SDS011;26359;48.750;9.314;2023-09-18T08:42:20;13.93;;;13.02;;
40675;SDS011;26359;48.750;9.314;2023-09-18T08:44:48;10.07;;;9.27;;
40675;SDS011;26359;48.750;9.314;2023-09-18T08:47:16;12.15;;;11.07;;
40675;SDS011;26359;48.750;9.314;2023-09-18T08:49:43;15.13;;;14.10;;
40675;SDS011;26359;48.750;9.314;2023-09-18T08:52:13;9.60;;;8.85;;
40675;SDS011;26359;48.750;9.314;2023-09-18T08:54:40;19.23;;;17.92;;
40675;SDS011;26359;48.750;9.314;2023-09-18T08:57:07;42.40;;;39.70;;
40675;SDS011;26359;48.750;9.314;2023-09-18T08:59:33;59.33;;;56.05;;
40675;SDS011;26359;48.750;9.314;2023-09-18T09:02:01;39.17;;;37.05;;
40675;SDS011;26359;48.750;9.314;2023-09-18T09:04:26;21.00;;;19.50;;
40675;SDS011;26359;48.750;9.314;2023-09-18T09:06:52;15.73;;;14.43;;
40675;SDS011;26359;48.750;9.314;2023-09-18T09:09:18;8.00;;;7.40;;
40675;SDS011;26359;48.750;9.314;2023-09-18T09:11:50;6.63;;;6.05;;
40675;SDS011;26359;48.750;9.314;2023-09-18T09:14:16;15.55;;;14.50;;
40675;SDS011;26359;48.750;9.314;2023-09-18T09:16:50;8.55;;;7.90;;
40675;SDS011;26359;48.750;9.314;2023-09-18T09:19:16;7.35;;;6.65;;
40675;SDS011;26359;48.750;9.314;2023-09-18T09:22:04;8.73;;;8.18;;
40675;SDS011;26359;48.750;9.314;2023-09-18T09:24:42;18.00;;;16.73;;
40675;SDS011;26359;48.750;9.314;2023-09-18T09:27:09;16.75;;;15.45;;
40675;SDS011;26359;48.750;9.314;2023-09-18T09:29:35;9.07;;;8.35;;
40675;SDS011;26359;48.750;9.314;2023-09-18T09:34:40;14.63;;;13.57;;
40675;SDS011;26359;48.750;9.314;2023-09-18T09:37:06;15.45;;;14.45;;
40675;SDS011;26359;48.750;9.314;2023-09-18T09:39:33;18.35;;;17.35;;
40675;SDS011;26359;48.750;9.314;2023-09-18T09:42:01;25.52;;;23.73;;
40675;SDS011;26359;48.750;9.314;2023-09-18T09:44:29;18.65;;;17.42;;
40675;SDS011;26359;48.750;9.314;2023-09-18T09:46:57;26.13;;;24.52;;
40675;SDS011;26359;48.750;9.314;2023-09-18T09:49:24;26.65;;;24.95;;
40675;SDS011;26359;48.750;9.314;2023-09-18T09:51:52;29.27;;;27.48;;
40675;SDS011;26359;48.750;9.314;2023-09-18T09:54:40;19.38;;;18.08;;
40675;SDS011;26359;48.750;9.314;2023-09-18T09:57:05;19.75;;;18.45;;
40675;SDS011;26359;48.750;9.314;2023-09-18T09:59:31;24.02;;;22.58;;
40675;SDS011;26359;48.750;9.314;2023-09-18T10:02:00;26.55;;;24.83;;
40675;SDS011;26359;48.750;9.314;2023-09-18T10:04:26;31.05;;;29.23;;
40675;SDS011;26359;48.750;9.314;2023-09-18T10:06:58;19.08;;;17.83;;
40675;SDS011;26359;48.750;9.314;2023-09-18T10:09:32;18.10;;;16.90;;
40675;SDS011;26359;48.750;9.314;2023-09-18T10:12:00;62.65;;;59.22;;
40675;SDS011;26359;48.750;9.314;2023-09-18T10:14:29;10.45;;;9.73;;
40675;SDS011;26359;48.750;9.314;2023-09-18T10:16:57;9.38;;;8.68;;
40675;SDS011;26359;48.750;9.314;2023-09-18T10:19:45;21.58;;;20.15;;
40675;SDS011;26359;48.750;9.314;2023-09-18T10:22:24;9.45;;;8.55;;
40675;SDS011;26359;48.750;9.314;2023-09-18T10:24:59;10.98;;;9.98;;
40675;SDS011;26359;48.750;9.314;2023-09-18T10:27:34;20.13;;;18.90;;
40675;SDS011;26359;48.750;9.314;2023-09-18T10:30:05;8.77;;;8.18;;
40675;SDS011;26359;48.750;9.314;2023-09-18T10:32:36;19.45;;;18.30;;
40675;SDS011;26359;48.750;9.314;2023-09-18T10:35:03;22.63;;;21.17;;
40675;SDS011;26359;48.750;9.314;2023-09-18T10:37:31;19.60;;;18.45;;
40675;SDS011;26359;48.750;9.314;2023-09-18T10:39:57;18.25;;;17.08;;
40675;SDS011;26359;48.750;9.314;2023-09-18T10:42:25;14.43;;;13.52;;
40675;SDS011;26359;48.750;9.314;2023-09-18T10:44:52;15.43;;;14.55;;
40675;SDS011;26359;48.750;9.314;2023-09-18T10:47:17;11.55;;;10.75;;
40675;SDS011;26359;48.750;9.314;2023-09-18T10:49:45;14.60;;;13.50;;
40675;SDS011;26359;48.750;9.314;2023-09-18T10:52:11;9.75;;;8.75;;
40675;SDS011;26359;48.750;9.314;2023-09-18T10:54:38;9.43;;;8.82;;
40675;SDS011;26359;48.750;9.314;2023-09-18T10:57:04;20.70;;;19.40;;
40675;SDS011;26359;48.750;9.314;2023-09-18T10:59:30;17.08;;;15.80;;
40675;SDS011;26359;48.750;9.314;2023-09-18T11:01:56;42.22;;;39.92;;
40675;SDS011;26359;48.750;9.314;2023-09-18T11:04:30;36.28;;;34.33;;
40675;SDS011;26359;48.750;9.314;2023-09-18T11:07:03;45.78;;;42.95;;
40675;SDS011;26359;48.750;9.314;2023-09-18T11:09:31;16.20;;;15.20;;
40675;SDS011;26359;48.750;9.314;2023-09-18T11:17:27;6.60;;;6.10;;
40675;SDS011;26359;48.750;9.314;2023-09-18T11:25:48;9.25;;;6.95;;
40675;SDS011;26359;48.750;9.314;2023-09-18T11:28:14;19.02;;;17.80;;
40675;SDS011;26359;48.750;9.314;2023-09-18T11:31:16;15.68;;;14.77;;
40675;SDS011;26359;48.750;9.314;2023-09-18T11:41:29;15.93;;;14.90;;
40675;SDS011;26359;48.750;9.314;2023-09-18T11:46:47;21.50;;;20.10;;
40675;SDS011;26359;48.750;9.314;2023-09-18T11:49:19;14.70;;;13.80;;
40675;SDS011;26359;48.750;9.314;2023-09-18T11:51:51;18.33;;;17.30;;
40675;SDS011;26359;48.750;9.314;2023-09-18T11:54:18;7.95;;;7.25;;
40675;SDS011;26359;48.750;9.314;2023-09-18T11:56:44;5.90;;;5.40;;
40675;SDS011;26359;48.750;9.314;2023-09-18T11:59:09;7.03;;;6.43;;
40675;SDS011;26359;48.750;9.314;2023-09-18T12:01:36;7.35;;;6.18;;
40675;SDS011;26359;48.750;9.314;2023-09-18T12:04:04;8.52;;;7.88;;
40675;SDS011;26359;48.750;9.314;2023-09-18T12:06:33;15.07;;;13.77;;
40675;SDS011;26359;48.750;9.314;2023-09-18T12:08:59;52.80;;;49.67;;
40675;SDS011;26359;48.750;9.314;2023-09-18T12:11:25;11.80;;;10.90;;
40675;SDS011;26359;48.750;9.314;2023-09-18T12:13:51;15.63;;;14.63;;
40675;SDS011;26359;48.750;9.314;2023-09-18T12:16:17;18.77;;;17.60;;
40675;SDS011;26359;48.750;9.314;2023-09-18T12:18:46;18.40;;;17.40;;
40675;SDS011;26359;48.750;9.314;2023-09-18T12:21:13;13.38;;;12.38;;
40675;SDS011;26359;48.750;9.314;2023-09-18T12:23:40;6.80;;;6.22;;
40675;SDS011;26359;48.750;9.314;2023-09-18T12:26:11;6.30;;;5.90;;
40675;SDS011;26359;48.750;9.314;2023-09-18T12:28:41;5.22;;;4.78;;
40675;SDS011;26359;48.750;9.314;2023-09-18T12:31:11;6.57;;;5.97;;
40675;SDS011;26359;48.750;9.314;2023-09-18T12:33:41;6.80;;;6.10;;
40675;SDS011;26359;48.750;9.314;2023-09-18T12:36:08;9.98;;;8.48;;
40675;SDS011;26359;48.750;9.314;2023-09-18T12:38:35;11.48;;;10.70;;
40675;SDS011;26359;48.750;9.314;2023-09-18T12:41:02;8.75;;;8.02;;
40675;SDS011;26359;48.750;9.314;2023-09-18T12:43:39;7.82;;;7.32;;
40675;SDS011;26359;48.750;9.314;2023-09-18T12:46:06;7.93;;;7.35;;
40675;SDS011;26359;48.750;9.314;2023-09-18T12:48:37;9.02;;;8.35;;
40675;SDS011;26359;48.750;9.314;2023-09-18T12:51:11;18.65;;;17.58;;
40675;SDS011;26359;48.750;9.314;2023-09-18T12:53:37;20.05;;;18.85;;
40675;SDS011;26359;48.750;9.314;2023-09-18T12:56:11;14.02;;;12.90;;
40675;SDS011;26359;48.750;9.314;2023-09-18T12:58:38;16.73;;;15.73;;
40675;SDS011;26359;48.750;9.314;2023-09-18T13:01:07;14.32;;;13.48;;
40675;SDS011;26359;48.750;9.314;2023-09-18T13:03:35;11.50;;;10.73;;
40675;SDS011;26359;48.750;9.314;2023-09-18T13:06:10;14.90;;;13.82;;
40675;SDS011;26359;48.750;9.314;2023-09-18T13:08:36;10.98;;;10.20;;
40675;SDS011;26359;48.750;9.314;2023-09-18T13:11:03;9.02;;;7.97;;
40675;SDS011;26359;48.750;9.314;2023-09-18T13:13:29;8.68;;;8.07;;
40675;SDS011;26359;48.750;9.314;2023-09-18T13:15:58;7.70;;;7.20;;
40675;SDS011;26359;48.750;9.314;2023-09-18T13:18:25;6.88;;;6.28;;
40675;SDS011;26359;48.750;9.314;2023-09-18T13:20:52;7.03;;;6.55;;
40675;SDS011;26359;48.750;9.314;2023-09-18T13:23:18;16.83;;;15.82;;
40675;SDS011;26359;48.750;9.314;2023-09-18T13:25:44;11.63;;;10.95;;
40675;SDS011;26359;48.750;9.314;2023-09-18T13:28:12;9.63;;;8.63;;
40675;SDS011;26359;48.750;9.314;2023-09-18T13:30:39;8.48;;;7.93;;
40675;SDS011;26359;48.750;9.314;2023-09-18T13:33:08;17.88;;;16.83;;
40675;SDS011;26359;48.750;9.314;2023-09-18T13:35:39;16.17;;;15.30;;
40675;SDS011;26359;48.750;9.314;2023-09-18T13:38:06;7.55;;;6.95;;
40675;SDS011;26359;48.750;9.314;2023-09-18T13:40:33;11.30;;;10.43;;
40675;SDS011;26359;48.750;9.314;2023-09-18T13:43:06;13.77;;;12.70;;
40675;SDS011;26359;48.750;9.314;2023-09-18T13:45:33;17.58;;;16.52;;
40675;SDS011;26359;48.750;9.314;2023-09-18T13:48:03;19.85;;;18.75;;
40675;SDS011;26359;48.750;9.314;2023-09-18T13:50:29;37.55;;;35.50;;
40675;SDS011;26359;48.750;9.314;2023-09-18T13:52:55;25.90;;;24.40;;
40675;SDS011;26359;48.750;9.314;2023-09-18T13:55:21;23.23;;;21.95;;
40675;SDS011;26359;48.750;9.314;2023-09-18T13:57:47;24.80;;;22.90;;
40675;SDS011;26359;48.750;9.314;2023-09-18T14:00:13;18.23;;;17.10;;
40675;SDS011;26359;48.750;9.314;2023-09-18T14:02:39;16.83;;;15.57;;
40675;SDS011;26359;48.750;9.314;2023-09-18T14:05:05;14.35;;;13.43;;
40675;SDS011;26359;48.750;9.314;2023-09-18T14:07:31;9.50;;;8.77;;
40675;SDS011;26359;48.750;9.314;2023-09-18T14:09:57;13.32;;;12.40;;
40675;SDS011;26359;48.750;9.314;2023-09-18T14:12:23;8.18;;;7.57;;
40675;SDS011;26359;48.750;9.314;2023-09-18T14:14:49;7.40;;;6.80;;
40675;SDS011;26359;48.750;9.314;2023-09-18T14:17:15;8.90;;;8.38;;
40675;SDS011;26359;48.750;9.314;2023-09-18T14:19:42;25.08;;;23.55;;
40675;SDS011;26359;48.750;9.314;2023-09-18T14:22:11;14.07;;;13.07;;
40675;SDS011;26359;48.750;9.314;2023-09-18T14:24:37;6.10;;;5.70;;
40675;SDS011;26359;48.750;9.314;2023-09-18T14:27:03;22.58;;;21.17;;
40675;SDS011;26359;48.750;9.314;2023-09-18T14:29:29;10.20;;;9.50;;
40675;SDS011;26359;48.750;9.314;2023-09-18T14:31:55;9.43;;;8.88;;
40675;SDS011;26359;48.750;9.314;2023-09-18T14:34:21;8.73;;;8.10;;
40675;SDS011;26359;48.750;9.314;2023-09-18T14:36:47;7.57;;;6.90;;
40675;SDS011;26359;48.750;9.314;2023-09-18T14:39:13;8.82;;;8.13;;
40675;SDS011;26359;48.750;9.314;2023-09-18T14:41:38;10.93;;;10.13;;
40675;SDS011;26359;48.750;9.314;2023-09-18T14:44:04;8.82;;;8.13;;
40675;SDS011;26359;48.750;9.314;2023-09-18T14:46:31;9.75;;;9.15;;
40675;SDS011;26359;48.750;9.314;2023-09-18T14:49:03;25.98;;;24.48;;
40675;SDS011;26359;48.750;9.314;2023-09-18T14:51:30;18.23;;;16.88;;